Time;durP1;ratioP1;P1;durP2;ratioP2;P2;SDS_P1;SDS_P2;PMS_P1;PMS_P2;Temp;Humidity;BMP_temperature;BMP_pressure;BME280_temperature;BME280_humidity;BME280_pressure;Samples;Min_cycle;Max_cycle;Signal;HPM_P1;HPM_P2
2022/07/03 00:02:00;;;;;;;2.97;1.10;;;22.00;45.40;;;;;;5023677;28;20605;-59
2022/07/03 00:04:28;;;;;;;3.10;0.98;;;22.00;45.40;;;;;;5026008;28;20056;-60
2022/07/03 00:06:55;;;;;;;2.28;1.10;;;22.00;45.40;;;;;;5025382;28;20068;-61
2022/07/03 00:09:23;;;;;;;1.92;1.05;;;22.00;45.50;;;;;;5025578;28;20053;-61
2022/07/03 00:11:50;;;;;;;3.08;1.02;;;22.00;45.60;;;;;;5024092;28;20049;-61
2022/07/03 00:14:18;;;;;;;3.88;1.23;;;21.90;45.70;;;;;;5024602;28;20054;-61
2022/07/03 00:16:47;;;;;;;3.35;1.38;;;21.90;45.50;;;;;;5024407;28;20057;-61
2022/07/03 00:19:15;;;;;;;3.67;1.20;;;21.90;45.60;;;;;;5025071;28;20056;-62
2022/07/03 00:21:46;;;;;;;2.92;1.23;;;21.90;45.60;;;;;;5023038;28;20049;-62
2022/07/03 00:24:23;;;;;;;2.67;1.10;;;21.90;45.70;;;;;;5025218;28;20057;-61
2022/07/03 00:26:52;;;;;;;2.92;1.15;;;21.80;45.70;;;;;;5024137;28;20065;-61
2022/07/03 00:29:22;;;;;;;1.92;1.23;;;21.80;45.60;;;;;;5024703;28;20057;-61
2022/07/03 00:31:51;;;;;;;4.95;1.00;;;21.80;45.70;;;;;;5022038;28;20045;-62
2022/07/03 00:34:20;;;;;;;5.43;1.40;;;21.80;45.70;;;;;;5025135;28;20412;-61
2022/07/03 00:36:48;;;;;;;3.95;1.30;;;21.80;45.90;;;;;;5025065;28;20046;-62
2022/07/03 00:39:16;;;;;;;2.13;1.08;;;21.80;46.00;;;;;;5025088;28;20064;-61
2022/07/03 00:41:46;;;;;;;1.08;0.77;;;21.80;46.30;;;;;;5023475;28;20420;-62
2022/07/03 00:44:14;;;;;;;2.83;1.00;;;21.70;46.40;;;;;;5023881;28;20045;-62
2022/07/03 00:46:42;;;;;;;2.35;0.98;;;21.70;46.40;;;;;;5024844;28;20072;-62
2022/07/03 00:49:12;;;;;;;4.00;0.98;;;21.70;46.10;;;;;;5024828;28;20079;-61
2022/07/03 00:51:41;;;;;;;4.03;1.20;;;21.70;45.90;;;;;;5022587;28;20046;-61
2022/07/03 00:54:10;;;;;;;2.42;1.10;;;21.70;45.90;;;;;;5024886;28;20053;-62
2022/07/03 00:56:40;;;;;;;5.75;1.48;;;21.70;45.90;;;;;;5025264;28;20061;-61
2022/07/03 00:59:08;;;;;;;3.33;1.05;;;21.60;45.90;;;;;;5023435;28;20068;-61
2022/07/03 01:01:38;;;;;;;2.40;0.82;;;21.60;45.90;;;;;;5022875;28;20045;-62
2022/07/03 01:04:18;;;;;;;2.55;0.93;;;21.60;46.10;;;;;;5024450;28;20053;-62
2022/07/03 01:06:53;;;;;;;2.30;1.30;;;21.50;45.90;;;;;;5024641;28;20053;-62
2022/07/03 01:09:35;;;;;;;1.77;0.75;;;21.50;46.00;;;;;;5024421;28;20064;-62
2022/07/03 01:12:11;;;;;;;4.65;1.08;;;21.50;46.60;;;;;;5020834;28;20049;-61
2022/07/03 01:14:46;;;;;;;1.83;1.00;;;21.50;46.50;;;;;;5024917;28;20049;-62
2022/07/03 01:17:24;;;;;;;2.40;1.02;;;21.50;46.80;;;;;;5023366;28;20398;-62
2022/07/03 01:20:01;;;;;;;3.25;1.27;;;21.40;46.80;;;;;;5023887;28;20048;-62
2022/07/03 01:22:32;;;;;;;2.00;1.00;;;21.40;46.70;;;;;;5022301;28;20069;-62
2022/07/03 01:25:22;;;;;;;1.98;0.82;;;21.40;46.50;;;;;;5023697;28;20405;-62
2022/07/03 01:28:12;;;;;;;8.48;1.50;;;21.40;46.60;;;;;;5023899;28;20386;-62
2022/07/03 01:30:41;;;;;;;2.85;1.48;;;21.30;47.10;;;;;;5018787;28;20295;-62
2022/07/03 01:33:11;;;;;;;2.45;1.10;;;21.30;46.60;;;;;;5023808;28;20053;-62
2022/07/03 01:35:40;;;;;;;1.83;1.02;;;21.30;46.80;;;;;;5024013;28;20401;-62
2022/07/03 01:38:09;;;;;;;4.25;1.65;;;21.20;46.80;;;;;;5022810;28;20090;-62
2022/07/03 01:40:39;;;;;;;2.00;1.10;;;21.20;46.90;;;;;;5020213;28;20577;-61
2022/07/03 01:43:10;;;;;;;5.72;1.20;;;21.10;47.00;;;;;;5022543;28;20516;-62
2022/07/03 01:45:42;;;;;;;6.68;0.93;;;21.00;47.10;;;;;;5021544;28;20053;-62
2022/07/03 01:48:11;;;;;;;1.77;0.95;;;21.00;47.10;;;;;;5021904;28;20057;-62
2022/07/03 01:50:41;;;;;;;2.65;1.05;;;21.00;47.20;;;;;;5021453;28;20058;-62
2022/07/03 01:53:10;;;;;;;4.07;1.20;;;20.90;47.30;;;;;;5024653;28;20064;-61
2022/07/03 01:55:41;;;;;;;2.35;1.00;;;20.90;47.50;;;;;;5024643;28;20051;-61
2022/07/03 01:58:11;;;;;;;5.85;1.00;;;20.80;47.60;;;;;;5021884;28;20049;-62
2022/07/03 02:00:46;;;;;;;2.25;0.90;;;20.80;47.70;;;;;;5021442;28;20049;-62
2022/07/03 02:03:22;;;;;;;3.40;0.90;;;20.80;47.90;;;;;;5021771;28;20053;-62
2022/07/03 02:05:54;;;;;;;4.97;1.38;;;20.70;47.90;;;;;;5023569;28;20048;-62
2022/07/03 02:08:44;;;;;;;3.15;1.00;;;20.70;47.90;;;;;;5023663;28;20390;-62
2022/07/03 02:11:15;;;;;;;3.72;1.02;;;20.70;48.10;;;;;;5021819;28;20057;-62
2022/07/03 02:14:00;;;;;;;2.95;1.00;;;20.60;48.00;;;;;;5024259;28;20060;-62
2022/07/03 02:16:29;;;;;;;3.38;0.98;;;20.60;48.30;;;;;;5023047;28;20539;-61
2022/07/03 02:18:58;;;;;;;4.43;1.30;;;20.50;48.10;;;;;;5022477;28;20060;-61
2022/07/03 02:21:29;;;;;;;2.78;0.93;;;20.50;48.30;;;;;;5020542;28;20060;-62
2022/07/03 02:24:10;;;;;;;2.67;1.20;;;20.50;48.30;;;;;;5022266;28;20064;-61
2022/07/03 02:26:40;;;;;;;4.28;1.10;;;20.40;48.50;;;;;;5023038;28;20053;-61
2022/07/03 02:29:16;;;;;;;2.50;1.08;;;20.30;48.50;;;;;;5023428;28;20057;-61
2022/07/03 02:31:45;;;;;;;4.75;1.20;;;20.30;48.60;;;;;;5020226;28;20416;-62
2022/07/03 02:34:16;;;;;;;1.85;0.90;;;20.30;48.60;;;;;;5022363;28;20057;-61
2022/07/03 02:36:47;;;;;;;4.53;1.48;;;20.20;48.70;;;;;;5023277;28;20057;-62
2022/07/03 02:39:23;;;;;;;3.47;1.20;;;20.20;48.80;;;;;;5023077;28;20053;-62
2022/07/03 02:41:57;;;;;;;3.22;1.00;;;20.20;48.80;;;;;;5022206;28;21111;-61
2022/07/03 02:44:32;;;;;;;3.47;1.10;;;20.20;49.00;;;;;;5021426;28;20060;-61
2022/07/03 02:47:04;;;;;;;3.65;0.90;;;20.10;49.00;;;;;;5023040;28;20045;-62
2022/07/03 02:49:50;;;;;;;3.40;0.93;;;20.10;49.10;;;;;;5022401;28;20058;-61
2022/07/03 02:52:29;;;;;;;3.90;1.50;;;20.10;49.30;;;;;;5021927;28;20057;-61
2022/07/03 02:55:02;;;;;;;2.72;1.10;;;20.00;49.30;;;;;;5022925;28;20061;-61
2022/07/03 02:57:38;;;;;;;4.70;1.13;;;20.00;49.20;;;;;;5022813;28;20520;-61
2022/07/03 03:00:10;;;;;;;2.08;1.15;;;20.00;49.30;;;;;;5021082;28;20068;-62
2022/07/03 03:02:51;;;;;;;2.03;1.15;;;20.00;49.40;;;;;;5020752;28;20488;-61
2022/07/03 03:05:26;;;;;;;3.95;1.13;;;20.00;49.60;;;;;;5023152;28;20495;-61
2022/07/03 03:08:06;;;;;;;1.75;1.00;;;19.90;49.60;;;;;;5021884;28;20057;-61
2022/07/03 03:10:37;;;;;;;2.85;1.15;;;19.90;49.70;;;;;;5020717;28;20061;-62
2022/07/03 03:13:06;;;;;;;3.85;1.25;;;19.90;49.70;;;;;;5021967;28;20080;-61
2022/07/03 03:15:36;;;;;;;2.47;1.20;;;19.90;49.70;;;;;;5021778;28;20041;-62
2022/07/03 03:18:07;;;;;;;2.92;1.20;;;19.90;49.80;;;;;;5021708;28;20493;-62
2022/07/03 03:20:36;;;;;;;2.38;1.17;;;19.90;49.70;;;;;;5019516;28;20053;-62
2022/07/03 03:23:18;;;;;;;2.78;1.00;;;19.80;49.80;;;;;;5022528;28;20056;-62
2022/07/03 03:25:46;;;;;;;1.48;1.00;;;19.80;50.00;;;;;;5022914;28;20046;-62
2022/07/03 03:28:14;;;;;;;3.50;1.40;;;19.80;49.90;;;;;;5022304;28;20061;-62
2022/07/03 03:30:43;;;;;;;1.60;1.05;;;19.80;50.00;;;;;;5019015;28;20053;-62
2022/07/03 03:33:11;;;;;;;2.67;1.08;;;19.80;50.10;;;;;;5021644;28;20053;-61
2022/07/03 03:35:40;;;;;;;2.50;1.30;;;19.70;50.10;;;;;;5023173;28;20493;-62
2022/07/03 03:38:07;;;;;;;1.67;1.05;;;19.70;50.10;;;;;;5023487;28;20497;-61
2022/07/03 03:40:36;;;;;;;2.92;1.00;;;19.70;50.10;;;;;;5021866;28;20061;-61
2022/07/03 03:43:04;;;;;;;6.25;1.17;;;19.70;50.10;;;;;;5022178;28;20421;-62
2022/07/03 03:45:32;;;;;;;1.92;1.25;;;19.70;50.10;;;;;;5021518;28;20049;-62
2022/07/03 03:48:01;;;;;;;2.10;1.00;;;19.70;50.10;;;;;;5021925;28;21236;-61
2022/07/03 03:50:28;;;;;;;2.70;1.63;;;19.70;50.20;;;;;;5020980;28;20493;-61
2022/07/03 03:52:56;;;;;;;4.03;1.40;;;19.60;50.20;;;;;;5020700;28;20045;-62
2022/07/03 03:55:23;;;;;;;3.40;1.48;;;19.60;50.40;;;;;;5021112;28;20057;-61
2022/07/03 03:57:51;;;;;;;2.55;1.00;;;19.60;50.40;;;;;;5021795;28;20064;-61
2022/07/03 04:00:18;;;;;;;3.22;1.27;;;19.60;50.50;;;;;;5022242;28;20064;-61
2022/07/03 04:02:46;;;;;;;2.22;1.08;;;19.60;50.50;;;;;;5019846;28;20064;-61
2022/07/03 04:05:15;;;;;;;3.78;1.40;;;19.60;50.50;;;;;;5023324;28;20058;-61
2022/07/03 04:07:42;;;;;;;2.70;1.13;;;19.50;50.60;;;;;;5021559;28;20046;-61
2022/07/03 04:10:10;;;;;;;4.38;1.35;;;19.50;50.60;;;;;;5021844;28;20088;-61
2022/07/03 04:12:38;;;;;;;1.98;1.00;;;19.50;50.70;;;;;;5023710;28;20438;-61
2022/07/03 04:15:06;;;;;;;4.88;1.48;;;19.50;50.70;;;;;;5022657;28;20504;-61
2022/07/03 04:17:34;;;;;;;8.10;1.27;;;19.50;50.80;;;;;;5020620;28;20053;-61
2022/07/03 04:20:01;;;;;;;3.47;1.02;;;19.50;50.90;;;;;;5023662;28;20048;-61
2022/07/03 04:22:30;;;;;;;2.05;1.13;;;19.50;51.00;;;;;;5025159;28;20061;-61
2022/07/03 04:24:57;;;;;;;3.17;1.45;;;19.40;51.10;;;;;;5025813;28;20058;-61
2022/07/03 04:27:25;;;;;;;2.63;1.10;;;19.50;51.20;;;;;;5025881;28;20394;-61
2022/07/03 04:29:52;;;;;;;2.42;1.38;;;19.50;51.00;;;;;;5025079;28;20072;-62
2022/07/03 04:32:20;;;;;;;4.90;2.35;;;19.50;50.90;;;;;;5025077;28;20053;-61
2022/07/03 04:34:47;;;;;;;3.67;1.17;;;19.40;51.00;;;;;;5023506;28;20433;-61
2022/07/03 04:37:14;;;;;;;6.13;1.20;;;19.50;51.30;;;;;;5025177;28;20064;-61
2022/07/03 04:39:43;;;;;;;2.00;1.00;;;19.40;51.40;;;;;;5025551;28;20072;-61
2022/07/03 04:42:11;;;;;;;5.40;1.70;;;19.40;51.50;;;;;;5024526;28;20060;-62
2022/07/03 04:44:38;;;;;;;2.67;1.40;;;19.40;51.60;;;;;;5024172;28;20058;-62
2022/07/03 04:47:06;;;;;;;2.10;1.00;;;19.40;51.60;;;;;;5023794;28;21115;-62
2022/07/03 04:49:33;;;;;;;3.03;1.10;;;19.50;51.90;;;;;;5024375;28;20053;-62
2022/07/03 04:52:01;;;;;;;9.73;4.32;;;19.50;51.90;;;;;;5024305;28;20053;-61
2022/07/03 04:54:28;;;;;;;7.05;4.00;;;19.50;51.90;;;;;;5024555;28;20053;-61
2022/07/03 04:56:57;;;;;;;7.85;3.10;;;19.50;52.10;;;;;;5024626;28;20412;-62
2022/07/03 04:59:24;;;;;;;5.10;2.13;;;19.50;52.30;;;;;;5021103;28;20064;-61
2022/07/03 05:01:52;;;;;;;5.53;1.67;;;19.50;52.30;;;;;;5021198;28;20088;-61
2022/07/03 05:04:19;;;;;;;1.95;1.30;;;19.50;52.40;;;;;;5021959;28;20540;-62
2022/07/03 05:06:47;;;;;;;4.25;1.08;;;19.50;52.30;;;;;;5024115;28;20496;-61
2022/07/03 05:09:15;;;;;;;4.20;1.25;;;19.50;52.40;;;;;;5024909;28;20068;-62
2022/07/03 05:11:42;;;;;;;2.17;1.00;;;19.60;52.50;;;;;;5021486;28;20506;-62
2022/07/03 05:14:12;;;;;;;2.40;1.33;;;19.50;52.40;;;;;;5022837;28;20057;-62
2022/07/03 05:16:39;;;;;;;3.17;1.50;;;19.60;52.50;;;;;;5021784;28;20064;-62
2022/07/03 05:19:07;;;;;;;5.72;1.40;;;19.60;52.60;;;;;;5021244;28;20065;-62
2022/07/03 05:21:34;;;;;;;3.33;1.80;;;19.60;52.60;;;;;;5024195;28;20057;-61
2022/07/03 05:24:02;;;;;;;30.92;14.38;;;19.60;52.70;;;;;;5022986;28;20674;-61
2022/07/03 05:26:29;;;;;;;12.55;7.22;;;19.60;52.70;;;;;;5024477;28;20061;-62
2022/07/03 05:28:57;;;;;;;5.00;2.97;;;19.70;52.90;;;;;;5022298;28;20527;-62
2022/07/03 05:31:25;;;;;;;3.90;1.70;;;19.70;53.00;;;;;;5022197;28;20056;-62
2022/07/03 05:33:53;;;;;;;4.53;1.50;;;19.70;53.10;;;;;;5021044;28;20539;-62
2022/07/03 05:36:20;;;;;;;2.92;1.60;;;19.80;53.30;;;;;;5022865;28;20049;-62
2022/07/03 05:41:33;;;;;;;1.77;1.33;;;19.90;53.30;;;;;;5027609;28;20064;-62
2022/07/03 05:44:00;;;;;;;2.67;1.40;;;19.90;53.20;;;;;;5023333;28;20501;-62
2022/07/03 05:46:29;;;;;;;3.28;1.00;;;20.00;53.40;;;;;;5020805;28;20049;-62
2022/07/03 05:48:56;;;;;;;4.10;1.25;;;20.00;53.60;;;;;;5022674;28;20060;-62
2022/07/03 05:51:24;;;;;;;2.55;1.48;;;20.10;53.80;;;;;;5022630;28;20053;-62
2022/07/03 05:53:51;;;;;;;5.20;1.30;;;20.10;53.70;;;;;;5023111;28;20053;-62
2022/07/03 05:56:19;;;;;;;2.33;1.30;;;20.20;53.70;;;;;;5021786;28;20053;-63
2022/07/03 05:58:46;;;;;;;2.85;1.33;;;20.30;53.80;;;;;;5022032;28;20041;-63
2022/07/03 06:01:13;;;;;;;2.63;1.27;;;20.30;53.90;;;;;;5020000;28;20054;-63
2022/07/03 06:03:42;;;;;;;1.92;1.27;;;20.40;54.00;;;;;;5023278;28;20061;-62
2022/07/03 06:06:10;;;;;;;2.83;1.40;;;20.40;54.10;;;;;;5023706;28;20064;-62
2022/07/03 06:08:37;;;;;;;4.05;1.67;;;20.50;54.10;;;;;;5024366;28;20056;-62
2022/07/03 06:11:05;;;;;;;1.77;1.20;;;20.60;54.20;;;;;;5023172;28;20053;-62
2022/07/03 06:13:32;;;;;;;3.53;1.33;;;20.70;54.10;;;;;;5023002;28;20057;-62
2022/07/03 06:15:59;;;;;;;3.30;1.35;;;20.80;54.20;;;;;;5022812;28;20490;-63
2022/07/03 06:18:27;;;;;;;3.60;1.33;;;20.90;54.20;;;;;;5022804;28;20068;-62
2022/07/03 06:20:56;;;;;;;4.45;1.38;;;21.00;53.90;;;;;;5022683;28;20053;-62
2022/07/03 06:23:23;;;;;;;1.83;0.95;;;21.00;54.00;;;;;;5023605;28;20061;-62
2022/07/03 06:25:51;;;;;;;3.58;1.45;;;21.10;54.00;;;;;;5023123;28;20060;-62
2022/07/03 06:28:18;;;;;;;3.55;1.40;;;21.20;54.10;;;;;;5021586;28;20052;-63
2022/07/03 06:30:46;;;;;;;3.67;1.50;;;21.30;54.00;;;;;;5021291;28;20057;-63
2022/07/03 06:33:13;;;;;;;2.75;1.23;;;21.30;53.80;;;;;;5023447;28;20057;-63
2022/07/03 06:35:40;;;;;;;2.58;1.10;;;21.40;53.80;;;;;;5023566;28;20056;-63
2022/07/03 06:38:09;;;;;;;5.30;1.50;;;21.50;53.70;;;;;;5023303;28;20054;-63
2022/07/03 06:40:37;;;;;;;3.38;1.15;;;21.50;52.60;;;;;;5022686;28;20064;-63
2022/07/03 06:43:04;;;;;;;4.82;1.58;;;21.60;52.40;;;;;;5022059;28;20057;-63
2022/07/03 06:45:32;;;;;;;3.58;1.40;;;21.70;52.60;;;;;;5021814;28;20489;-60
2022/07/03 06:47:59;;;;;;;3.65;1.40;;;21.80;52.30;;;;;;5022894;28;20053;-63
2022/07/03 06:50:27;;;;;;;3.85;1.63;;;21.80;51.90;;;;;;5022572;28;20064;-63
2022/07/03 06:52:54;;;;;;;4.40;1.77;;;21.80;51.70;;;;;;5022541;28;20050;-63
2022/07/03 06:55:23;;;;;;;2.67;1.20;;;21.90;51.90;;;;;;5023063;28;20056;-63
2022/07/03 06:57:50;;;;;;;3.15;1.27;;;22.00;51.40;;;;;;5020614;28;20053;-63
2022/07/03 07:00:18;;;;;;;3.78;1.58;;;22.00;51.50;;;;;;5022646;28;20049;-63
2022/07/03 07:02:46;;;;;;;4.53;1.73;;;22.10;51.60;;;;;;5021062;28;20057;-63
2022/07/03 07:05:13;;;;;;;7.55;1.40;;;22.20;51.20;;;;;;5023058;28;20049;-58
2022/07/03 07:07:40;;;;;;;6.63;1.73;;;22.20;51.20;;;;;;5023166;28;20049;-63
2022/07/03 07:10:09;;;;;;;4.35;1.60;;;22.30;50.60;;;;;;5022988;28;20068;-60
2022/07/03 07:12:38;;;;;;;5.25;1.73;;;22.30;49.50;;;;;;5020551;28;20068;-56
2022/07/03 07:15:06;;;;;;;5.93;1.73;;;22.40;49.30;;;;;;5022683;28;20046;-59
2022/07/03 07:17:33;;;;;;;5.70;1.30;;;22.40;48.70;;;;;;5021594;28;20057;-62
2022/07/03 07:20:01;;;;;;;7.60;2.00;;;22.50;49.10;;;;;;5022661;28;20444;-61
2022/07/03 07:22:28;;;;;;;8.95;1.83;;;22.50;48.70;;;;;;5022859;28;20064;-59
2022/07/03 07:24:56;;;;;;;4.78;1.40;;;22.60;48.90;;;;;;5022788;28;20060;-62
2022/07/03 07:27:23;;;;;;;6.53;1.73;;;22.60;48.30;;;;;;5022572;28;20064;-60
2022/07/03 07:29:52;;;;;;;6.85;1.67;;;22.70;48.70;;;;;;5021709;28;20057;-62
2022/07/03 07:32:19;;;;;;;3.47;1.33;;;22.70;48.80;;;;;;5021266;28;20069;-63
2022/07/03 07:34:47;;;;;;;3.78;1.50;;;22.70;48.70;;;;;;5023056;28;20428;-59
2022/07/03 07:37:14;;;;;;;3.70;1.02;;;22.80;48.50;;;;;;5022439;28;20053;-63
2022/07/03 07:39:41;;;;;;;9.50;1.60;;;22.90;48.40;;;;;;5022986;28;20049;-58
2022/07/03 07:42:09;;;;;;;3.08;1.58;;;22.90;48.20;;;;;;5021225;28;20057;-63
2022/07/03 07:44:37;;;;;;;3.13;1.25;;;22.90;48.10;;;;;;5022022;28;20497;-59
2022/07/03 07:47:06;;;;;;;29.17;2.10;;;22.90;48.70;;;;;;5021817;28;20057;-54
2022/07/03 07:49:33;;;;;;;8.50;1.60;;;22.90;48.20;;;;;;5022319;28;20049;-61
2022/07/03 07:52:00;;;;;;;3.63;1.60;;;22.90;47.30;;;;;;5021081;28;20053;-48
2022/07/03 07:54:29;;;;;;;4.53;1.83;;;22.90;48.30;;;;;;5022063;28;20061;-61
2022/07/03 07:56:56;;;;;;;3.10;1.75;;;22.90;47.30;;;;;;5023857;28;20065;-57
2022/07/03 07:59:24;;;;;;;3.75;1.63;;;22.90;47.60;;;;;;5024914;28;20060;-54
2022/07/03 08:07:22;;;;;;;4.20;1.98;;;23.00;47.60;;;;;;5032549;28;20437;-56
2022/07/03 08:09:52;;;;;;;2.78;1.50;;;23.10;47.90;;;;;;5024272;28;20501;-62
2022/07/03 08:12:20;;;;;;;2.38;1.35;;;23.10;48.20;;;;;;5025005;28;20050;-64
2022/07/03 08:14:47;;;;;;;2.70;1.40;;;23.10;48.20;;;;;;5025413;28;20516;-61
2022/07/03 08:17:15;;;;;;;4.32;1.75;;;23.20;48.10;;;;;;5024671;28;20054;-63
2022/07/03 08:19:43;;;;;;;4.03;1.50;;;23.30;48.00;;;;;;5025713;28;20080;-61
2022/07/03 08:22:11;;;;;;;4.68;1.70;;;23.30;47.60;;;;;;5025282;28;20049;-59
2022/07/03 08:24:38;;;;;;;3.60;1.70;;;23.40;47.30;;;;;;5025814;28;20053;-63
2022/07/03 08:27:06;;;;;;;6.43;2.00;;;23.40;46.80;;;;;;5025141;28;20500;-63
2022/07/03 08:29:34;;;;;;;4.50;1.55;;;23.50;47.10;;;;;;5024908;28;20508;-61
2022/07/03 08:32:01;;;;;;;4.28;1.50;;;23.50;47.80;;;;;;5024204;28;20057;-62
2022/07/03 08:34:29;;;;;;;4.70;1.58;;;23.60;48.10;;;;;;5025154;28;20053;-63
2022/07/03 08:36:57;;;;;;;3.10;1.27;;;23.60;47.70;;;;;;5024347;28;20061;-63
2022/07/03 08:39:25;;;;;;;3.50;1.10;;;23.60;47.40;;;;;;5024606;28;20052;-63
2022/07/03 08:41:53;;;;;;;5.10;1.20;;;23.70;47.60;;;;;;5024377;28;20501;-60
2022/07/03 08:44:23;;;;;;;5.70;1.25;;;23.80;47.40;;;;;;5024452;28;20057;-62
2022/07/03 08:46:51;;;;;;;4.45;1.63;;;23.80;47.80;;;;;;5024970;28;20053;-57
2022/07/03 08:49:20;;;;;;;2.72;1.38;;;23.90;47.50;;;;;;5023781;28;20054;-61
2022/07/03 08:51:47;;;;;;;4.80;1.80;;;24.00;46.90;;;;;;5024613;28;20053;-62
2022/07/03 08:54:16;;;;;;;3.25;1.45;;;24.00;46.90;;;;;;5022875;28;20057;-62
2022/07/03 08:56:44;;;;;;;3.17;1.30;;;24.10;47.30;;;;;;5024806;28;20049;-62
2022/07/03 08:59:13;;;;;;;6.78;1.60;;;24.10;47.30;;;;;;5024954;28;20056;-61
2022/07/03 09:01:44;;;;;;;4.63;1.75;;;24.20;46.70;;;;;;5022880;28;20607;-61
2022/07/03 09:04:13;;;;;;;7.70;1.75;;;24.20;45.30;;;;;;5025243;28;20049;-58
2022/07/03 09:06:42;;;;;;;3.45;1.73;;;24.30;45.20;;;;;;5024934;28;20405;-55
2022/07/03 09:09:10;;;;;;;7.97;2.20;;;24.30;45.20;;;;;;5025155;28;20057;-60
2022/07/03 09:11:39;;;;;;;3.40;1.60;;;24.40;45.20;;;;;;5023404;28;20061;-62
2022/07/03 09:14:07;;;;;;;5.95;1.40;;;24.40;44.40;;;;;;5024749;28;20065;-61
2022/07/03 09:16:36;;;;;;;3.97;1.38;;;24.50;45.00;;;;;;5022888;28;20057;-62
2022/07/03 09:19:04;;;;;;;8.18;2.33;;;24.50;45.30;;;;;;5023836;28;20414;-62
2022/07/03 09:21:39;;;;;;;4.90;2.00;;;24.60;45.40;;;;;;5022687;28;20053;-62
2022/07/03 09:24:07;;;;;;;4.40;1.60;;;24.70;46.40;;;;;;5017961;28;20413;-59
2022/07/03 09:26:35;;;;;;;4.25;1.60;;;24.70;45.60;;;;;;5023293;28;20080;-62
2022/07/03 09:29:06;;;;;;;3.67;1.27;;;24.80;45.10;;;;;;5020257;28;20053;-62
2022/07/03 09:31:33;;;;;;;5.95;1.90;;;24.90;45.30;;;;;;5023206;28;20053;-52
2022/07/03 09:34:03;;;;;;;2.58;1.40;;;24.90;44.40;;;;;;5023897;28;20060;-58
2022/07/03 09:36:42;;;;;;;5.97;1.60;;;24.90;43.90;;;;;;5022897;28;20065;-62
2022/07/03 09:39:21;;;;;;;2.50;1.42;;;24.90;44.20;;;;;;5023764;28;20493;-62
2022/07/03 09:41:57;;;;;;;3.53;1.20;;;25.00;44.30;;;;;;5023129;28;20493;-60
2022/07/03 09:44:37;;;;;;;4.05;1.70;;;25.10;44.80;;;;;;5022219;28;20057;-61
2022/07/03 09:47:13;;;;;;;2.30;0.90;;;25.20;44.10;;;;;;5022731;28;20060;-62
2022/07/03 09:49:49;;;;;;;2.00;1.13;;;25.20;44.30;;;;;;5022851;28;20398;-61
2022/07/03 09:52:32;;;;;;;9.00;1.60;;;25.20;44.30;;;;;;5021825;28;20060;-58
2022/07/03 09:55:02;;;;;;;6.53;1.55;;;25.30;43.80;;;;;;5021857;28;20520;-62
2022/07/03 09:57:30;;;;;;;2.55;1.13;;;25.30;44.10;;;;;;5022087;28;20049;-60
2022/07/03 10:00:13;;;;;;;3.75;1.42;;;25.40;44.70;;;;;;5019295;28;20050;-61
2022/07/03 10:03:00;;;;;;;2.60;1.27;;;25.40;44.20;;;;;;5020559;28;20057;-58
2022/07/03 10:05:30;;;;;;;4.93;1.60;;;25.50;43.30;;;;;;5024348;28;20056;-61
2022/07/03 10:07:59;;;;;;;3.05;1.00;;;25.60;42.40;;;;;;5024721;28;20088;-61
2022/07/03 10:10:29;;;;;;;4.10;1.38;;;25.70;43.30;;;;;;5021794;28;20050;-60
2022/07/03 10:12:57;;;;;;;4.03;1.42;;;25.70;43.60;;;;;;5023535;28;20057;-58
2022/07/03 10:15:32;;;;;;;4.13;1.15;;;25.80;42.30;;;;;;5021888;28;20503;-61
2022/07/03 10:18:01;;;;;;;5.63;1.10;;;25.80;42.10;;;;;;5022079;28;20429;-60
2022/07/03 10:20:30;;;;;;;3.80;1.30;;;25.90;42.60;;;;;;5020671;28;20049;-61
2022/07/03 10:22:58;;;;;;;2.80;1.35;;;25.90;41.70;;;;;;5020077;28;20473;-59
2022/07/03 10:25:26;;;;;;;3.25;0.90;;;26.00;42.40;;;;;;5022673;28;20056;-56
2022/07/03 10:27:53;;;;;;;3.05;1.00;;;25.90;40.90;;;;;;5023321;28;20053;-60
2022/07/03 10:30:23;;;;;;;5.32;1.30;;;26.00;41.90;;;;;;5021865;28;20060;-61
2022/07/03 10:32:54;;;;;;;3.40;0.80;;;26.00;39.90;;;;;;5022813;28;20064;-59
2022/07/03 10:35:25;;;;;;;3.58;1.30;;;26.00;39.80;;;;;;5023824;28;20053;-61
2022/07/03 10:38:30;;;;;;;6.28;1.30;;;26.00;39.80;;;;;;5021780;28;20056;-57
2022/07/03 10:46:36;;;;;;;2.83;1.40;;;26.10;38.60;;;;;;5023518;28;20067;-56
2022/07/03 10:49:07;;;;;;;2.78;1.08;;;26.10;39.40;;;;;;5021150;28;20454;-54
2022/07/03 10:51:53;;;;;;;2.70;1.10;;;26.20;39.20;;;;;;5022017;28;20049;-59
2022/07/03 10:54:22;;;;;;;2.72;0.95;;;26.20;38.80;;;;;;5022651;28;20057;-59
2022/07/03 10:57:17;;;;;;;4.07;1.30;;;26.20;40.20;;;;;;5022941;28;20049;-54
2022/07/03 11:00:05;;;;;;;3.47;1.20;;;26.30;41.20;;;;;;5021656;28;20053;-59
2022/07/03 11:02:38;;;;;;;2.70;0.70;;;26.40;40.20;;;;;;5020411;28;20053;-60
2022/07/03 11:05:12;;;;;;;2.05;0.80;;;26.50;39.80;;;;;;5024105;28;20986;-60
2022/07/03 11:08:05;;;;;;;4.75;1.17;;;26.50;39.80;;;;;;5023756;28;20049;-61
2022/07/03 11:10:40;;;;;;;1.90;1.02;;;26.60;39.10;;;;;;5020767;28;20045;-59
2022/07/03 11:13:11;;;;;;;10.15;1.20;;;26.70;39.10;;;;;;5021295;28;20065;-52
2022/07/03 11:15:46;;;;;;;4.22;1.27;;;26.70;38.10;;;;;;5026798;28;20053;-60
2022/07/03 11:18:29;;;;;;;3.63;1.05;;;26.80;39.30;;;;;;5027666;28;20049;-60
2022/07/03 11:21:34;;;;;;;3.55;1.30;;;26.90;39.60;;;;;;5027157;28;20049;-61
2022/07/03 11:24:25;;;;;;;4.20;1.02;;;26.90;39.80;;;;;;5022012;28;20054;-56
2022/07/03 11:27:24;;;;;;;3.80;1.10;;;27.00;39.20;;;;;;5022571;28;20081;-60
2022/07/03 11:29:55;;;;;;;3.88;1.17;;;27.10;41.80;;;;;;4978500;28;20998;-58
2022/07/03 11:32:46;;;;;;;3.60;1.20;;;27.20;40.40;;;;;;5014847;28;20049;-60
2022/07/03 11:35:45;;;;;;;2.85;1.10;;;27.20;39.10;;;;;;5027049;28;20412;-60
2022/07/03 11:38:16;;;;;;;3.83;1.10;;;27.30;38.50;;;;;;5027097;28;20060;-61
2022/07/03 11:40:44;;;;;;;2.75;1.15;;;27.30;38.40;;;;;;5024025;28;20053;-60
2022/07/03 11:43:12;;;;;;;2.55;1.00;;;27.40;37.90;;;;;;5025468;28;20060;-54
2022/07/03 11:45:41;;;;;;;2.80;1.05;;;27.40;39.00;;;;;;5026891;28;20053;-59
2022/07/03 11:48:10;;;;;;;2.65;0.95;;;27.40;38.80;;;;;;5024693;28;20497;-60
2022/07/03 11:50:39;;;;;;;2.40;0.90;;;27.40;38.70;;;;;;5024082;28;20056;-60
2022/07/03 11:53:22;;;;;;;3.67;1.00;;;27.40;37.90;;;;;;5024440;28;20057;-61
2022/07/03 11:55:52;;;;;;;4.28;1.10;;;27.40;37.40;;;;;;5023393;28;20060;-60
2022/07/03 11:58:20;;;;;;;2.55;1.08;;;27.40;37.90;;;;;;5023528;28;20049;-60
2022/07/03 12:00:48;;;;;;;2.63;1.00;;;27.40;37.80;;;;;;5025015;28;20092;-61
2022/07/03 12:03:16;;;;;;;3.72;1.20;;;27.40;38.80;;;;;;5026479;28;20060;-56
2022/07/03 12:05:56;;;;;;;4.85;1.33;;;27.50;38.50;;;;;;5026138;28;20053;-55
2022/07/03 12:08:27;;;;;;;4.28;1.50;;;27.50;38.90;;;;;;5026804;28;20060;-56
2022/07/03 12:11:03;;;;;;;2.30;1.10;;;27.50;38.20;;;;;;5024782;28;20323;-59
2022/07/03 12:13:33;;;;;;;3.85;1.40;;;27.50;39.00;;;;;;5031903;28;20527;-61
2022/07/03 12:16:13;;;;;;;6.43;1.13;;;27.60;38.40;;;;;;5030259;28;20046;-60
2022/07/03 12:18:53;;;;;;;1.75;0.85;;;27.60;38.50;;;;;;5031814;28;20053;-60
2022/07/03 12:21:23;;;;;;;2.63;0.90;;;27.70;38.50;;;;;;5032680;28;20056;-60
2022/07/03 12:23:54;;;;;;;1.77;1.08;;;27.80;38.40;;;;;;5031655;28;20053;-61
2022/07/03 12:26:34;;;;;;;2.33;1.10;;;27.80;38.10;;;;;;5032011;28;20072;-61
2022/07/03 12:29:06;;;;;;;3.33;1.00;;;27.90;38.40;;;;;;5031908;28;20057;-55
2022/07/03 12:31:53;;;;;;;3.28;1.00;;;27.90;38.50;;;;;;5028740;28;20416;-58
2022/07/03 12:34:36;;;;;;;3.05;1.05;;;28.00;38.90;;;;;;5029309;28;20417;-61
2022/07/03 12:37:06;;;;;;;4.23;1.40;;;28.00;38.80;;;;;;5030875;28;20513;-60
2022/07/03 12:39:46;;;;;;;4.10;0.98;;;28.10;37.90;;;;;;5031420;28;20068;-61
2022/07/03 12:42:23;;;;;;;3.55;1.10;;;28.10;37.40;;;;;;5029541;28;20050;-60
2022/07/03 12:44:58;;;;;;;2.72;1.05;;;28.10;38.40;;;;;;5027367;28;20068;-57
2022/07/03 12:47:26;;;;;;;3.75;1.00;;;28.10;37.90;;;;;;5024704;28;20059;-56
2022/07/03 12:49:58;;;;;;;2.80;0.98;;;28.10;37.40;;;;;;5024412;28;20057;-60
2022/07/03 12:52:26;;;;;;;3.42;1.05;;;28.10;38.60;;;;;;5021630;28;20061;-61
2022/07/03 12:54:55;;;;;;;6.07;1.27;;;28.10;38.30;;;;;;5024620;28;20958;-61
2022/07/03 13:00:10;;;;;;;4.32;1.00;;;28.10;38.20;;;;;;5030572;28;20056;-61
2022/07/03 13:02:38;;;;;;;3.40;0.93;;;28.10;38.30;;;;;;5023012;28;20057;-61
2022/07/03 13:05:16;;;;;;;3.33;1.10;;;28.20;38.20;;;;;;5024924;28;20053;-58
2022/07/03 13:07:45;;;;;;;1.35;0.90;;;28.20;38.20;;;;;;5023846;28;20500;-61
2022/07/03 13:10:15;;;;;;;1.63;0.93;;;28.20;38.30;;;;;;5024699;28;20520;-59
2022/07/03 13:12:51;;;;;;;2.92;1.00;;;28.30;38.50;;;;;;5020801;28;21495;-59
2022/07/03 13:15:20;;;;;;;7.45;1.58;;;28.30;37.00;;;;;;5023716;28;20508;-58
2022/07/03 13:18:02;;;;;;;3.00;0.95;;;28.30;36.60;;;;;;5023776;28;20053;-61
2022/07/03 13:20:31;;;;;;;3.13;0.90;;;28.40;37.00;;;;;;5024607;28;20096;-61
2022/07/03 13:23:00;;;;;;;5.65;0.93;;;28.40;37.50;;;;;;5023975;28;20424;-60